sensor_id;sensor_type;location;lat;lon;timestamp;P1;durP1;ratioP1;P2;durP2;ratioP2
18336;SDS011;9294;51.106;7.028;2022-10-30T00:00:21;2.60;;;2.50;;
18336;SDS011;9294;51.106;7.028;2022-10-30T00:02:48;2.53;;;2.47;;
18336;SDS011;9294;51.106;7.028;2022-10-30T00:05:17;2.65;;;2.50;;
18336;SDS011;9294;51.106;7.028;2022-10-30T00:07:44;2.58;;;2.47;;
18336;SDS011;9294;51.106;7.028;2022-10-30T00:10:12;3.03;;;2.90;;
18336;SDS011;9294;51.106;7.028;2022-10-30T00:12:39;3.05;;;2.85;;
18336;SDS011;9294;51.106;7.028;2022-10-30T00:15:06;2.70;;;2.60;;
18336;SDS011;9294;51.106;7.028;2022-10-30T00:17:34;3.00;;;2.85;;
18336;SDS011;9294;51.106;7.028;2022-10-30T00:20:01;2.85;;;2.75;;
18336;SDS011;9294;51.106;7.028;2022-10-30T00:22:29;2.50;;;2.40;;
18336;SDS011;9294;51.106;7.028;2022-10-30T00:24:56;2.92;;;2.78;;
18336;SDS011;9294;51.106;7.028;2022-10-30T00:27:23;2.78;;;2.58;;
18336;SDS011;9294;51.106;7.028;2022-10-30T00:29:50;2.63;;;2.53;;
18336;SDS011;9294;51.106;7.028;2022-10-30T00:32:18;3.10;;;2.90;;
18336;SDS011;9294;51.106;7.028;2022-10-30T00:34:45;2.67;;;2.58;;
18336;SDS011;9294;51.106;7.028;2022-10-30T00:37:12;2.60;;;2.50;;
18336;SDS011;9294;51.106;7.028;2022-10-30T00:39:40;2.85;;;2.65;;
18336;SDS011;9294;51.106;7.028;2022-10-30T00:42:08;2.70;;;2.60;;
18336;SDS011;9294;51.106;7.028;2022-10-30T00:44:37;3.03;;;2.83;;
18336;SDS011;9294;51.106;7.028;2022-10-30T00:47:09;2.90;;;2.80;;
18336;SDS011;9294;51.106;7.028;2022-10-30T00:49:38;2.95;;;2.75;;
18336;SDS011;9294;51.106;7.028;2022-10-30T00:52:07;2.90;;;2.80;;
18336;SDS011;9294;51.106;7.028;2022-10-30T00:54:35;2.70;;;2.60;;
18336;SDS011;9294;51.106;7.028;2022-10-30T00:57:04;2.60;;;2.50;;
18336;SDS011;9294;51.106;7.028;2022-10-30T00:59:32;2.42;;;2.33;;
18336;SDS011;9294;51.106;7.028;2022-10-30T01:02:00;2.38;;;2.38;;
18336;SDS011;9294;51.106;7.028;2022-10-30T01:04:27;2.35;;;2.25;;
18336;SDS011;9294;51.106;7.028;2022-10-30T01:06:55;2.72;;;2.63;;
18336;SDS011;9294;51.106;7.028;2022-10-30T01:09:23;2.70;;;2.60;;
18336;SDS011;9294;51.106;7.028;2022-10-30T01:11:50;2.65;;;2.55;;
18336;SDS011;9294;51.106;7.028;2022-10-30T01:14:18;2.53;;;2.42;;
18336;SDS011;9294;51.106;7.028;2022-10-30T01:16:51;3.05;;;2.95;;
18336;SDS011;9294;51.106;7.028;2022-10-30T01:19:22;3.13;;;3.03;;
18336;SDS011;9294;51.106;7.028;2022-10-30T01:21:57;2.80;;;2.70;;
18336;SDS011;9294;51.106;7.028;2022-10-30T01:24:32;3.05;;;2.95;;
18336;SDS011;9294;51.106;7.028;2022-10-30T01:27:05;2.60;;;2.50;;
18336;SDS011;9294;51.106;7.028;2022-10-30T01:29:37;2.38;;;2.28;;
18336;SDS011;9294;51.106;7.028;2022-10-30T01:32:09;3.42;;;3.13;;
18336;SDS011;9294;51.106;7.028;2022-10-30T01:34:40;2.90;;;2.80;;
18336;SDS011;9294;51.106;7.028;2022-10-30T01:37:09;2.70;;;2.60;;
18336;SDS011;9294;51.106;7.028;2022-10-30T01:39:40;3.33;;;3.13;;
18336;SDS011;9294;51.106;7.028;2022-10-30T01:42:08;2.75;;;2.55;;
18336;SDS011;9294;51.106;7.028;2022-10-30T01:44:36;2.90;;;2.80;;
18336;SDS011;9294;51.106;7.028;2022-10-30T01:47:08;2.80;;;2.70;;
18336;SDS011;9294;51.106;7.028;2022-10-30T01:49:46;2.70;;;2.60;;
18336;SDS011;9294;51.106;7.028;2022-10-30T01:52:16;2.80;;;2.70;;
18336;SDS011;9294;51.106;7.028;2022-10-30T01:54:45;2.50;;;2.40;;
18336;SDS011;9294;51.106;7.028;2022-10-30T01:57:16;2.50;;;2.40;;
18336;SDS011;9294;51.106;7.028;2022-10-30T01:59:46;2.53;;;2.42;;
18336;SDS011;9294;51.106;7.028;2022-10-30T02:02:14;2.50;;;2.40;;
18336;SDS011;9294;51.106;7.028;2022-10-30T02:04:41;2.60;;;2.50;;
18336;SDS011;9294;51.106;7.028;2022-10-30T02:07:09;2.42;;;2.33;;
18336;SDS011;9294;51.106;7.028;2022-10-30T02:09:36;2.97;;;2.78;;
18336;SDS011;9294;51.106;7.028;2022-10-30T02:12:04;2.88;;;2.67;;
18336;SDS011;9294;51.106;7.028;2022-10-30T02:14:32;2.80;;;2.70;;
18336;SDS011;9294;51.106;7.028;2022-10-30T02:17:02;2.90;;;2.70;;
18336;SDS011;9294;51.106;7.028;2022-10-30T02:19:30;2.53;;;2.42;;
18336;SDS011;9294;51.106;7.028;2022-10-30T02:21:58;2.55;;;2.45;;
18336;SDS011;9294;51.106;7.028;2022-10-30T02:24:26;3.38;;;3.08;;
18336;SDS011;9294;51.106;7.028;2022-10-30T02:26:53;3.08;;;2.97;;
18336;SDS011;9294;51.106;7.028;2022-10-30T02:29:20;3.13;;;2.92;;
18336;SDS011;9294;51.106;7.028;2022-10-30T02:31:47;2.47;;;2.38;;
18336;SDS011;9294;51.106;7.028;2022-10-30T02:34:14;2.92;;;2.83;;
18336;SDS011;9294;51.106;7.028;2022-10-30T02:36:41;2.25;;;2.15;;
18336;SDS011;9294;51.106;7.028;2022-10-30T02:39:10;2.58;;;2.47;;
18336;SDS011;9294;51.106;7.028;2022-10-30T02:41:37;2.40;;;2.30;;
18336;SDS011;9294;51.106;7.028;2022-10-30T02:44:04;2.53;;;2.42;;
18336;SDS011;9294;51.106;7.028;2022-10-30T02:46:32;2.72;;;2.63;;
18336;SDS011;9294;51.106;7.028;2022-10-30T02:48:59;2.60;;;2.45;;
18336;SDS011;9294;51.106;7.028;2022-10-30T02:51:26;2.80;;;2.60;;
18336;SDS011;9294;51.106;7.028;2022-10-30T02:53:53;2.97;;;2.88;;
18336;SDS011;9294;51.106;7.028;2022-10-30T02:56:22;2.80;;;2.60;;
18336;SDS011;9294;51.106;7.028;2022-10-30T02:58:49;2.72;;;2.63;;
18336;SDS011;9294;51.106;7.028;2022-10-30T03:01:16;2.85;;;2.75;;
18336;SDS011;9294;51.106;7.028;2022-10-30T03:03:44;2.80;;;2.70;;
18336;SDS011;9294;51.106;7.028;2022-10-30T03:06:13;2.60;;;2.50;;
18336;SDS011;9294;51.106;7.028;2022-10-30T03:08:41;2.67;;;2.58;;
18336;SDS011;9294;51.106;7.028;2022-10-30T03:11:09;2.80;;;2.70;;
18336;SDS011;9294;51.106;7.028;2022-10-30T03:13:38;2.60;;;2.50;;
18336;SDS011;9294;51.106;7.028;2022-10-30T03:16:06;2.58;;;2.47;;
18336;SDS011;9294;51.106;7.028;2022-10-30T03:18:34;2.72;;;2.63;;
18336;SDS011;9294;51.106;7.028;2022-10-30T03:21:02;3.10;;;2.90;;
18336;SDS011;9294;51.106;7.028;2022-10-30T03:23:29;3.20;;;3.00;;
18336;SDS011;9294;51.106;7.028;2022-10-30T03:25:57;3.00;;;2.90;;
18336;SDS011;9294;51.106;7.028;2022-10-30T03:28:25;2.92;;;2.83;;
18336;SDS011;9294;51.106;7.028;2022-10-30T03:30:58;2.67;;;2.58;;
18336;SDS011;9294;51.106;7.028;2022-10-30T03:33:25;3.00;;;2.90;;
18336;SDS011;9294;51.106;7.028;2022-10-30T03:35:52;2.92;;;2.78;;
18336;SDS011;9294;51.106;7.028;2022-10-30T03:38:19;2.80;;;2.70;;
18336;SDS011;9294;51.106;7.028;2022-10-30T03:40:46;2.63;;;2.53;;
18336;SDS011;9294;51.106;7.028;2022-10-30T03:43:13;2.78;;;2.67;;
18336;SDS011;9294;51.106;7.028;2022-10-30T03:45:44;2.28;;;2.17;;
18336;SDS011;9294;51.106;7.028;2022-10-30T03:48:13;2.65;;;2.55;;
18336;SDS011;9294;51.106;7.028;2022-10-30T03:50:40;2.92;;;2.83;;
18336;SDS011;9294;51.106;7.028;2022-10-30T03:53:07;2.53;;;2.42;;
18336;SDS011;9294;51.106;7.028;2022-10-30T03:55:34;3.25;;;3.05;;
18336;SDS011;9294;51.106;7.028;2022-10-30T03:58:01;2.80;;;2.70;;
18336;SDS011;9294;51.106;7.028;2022-10-30T04:00:28;2.92;;;2.83;;
18336;SDS011;9294;51.106;7.028;2022-10-30T04:02:55;2.67;;;2.58;;
18336;SDS011;9294;51.106;7.028;2022-10-30T04:05:24;3.03;;;2.92;;
18336;SDS011;9294;51.106;7.028;2022-10-30T04:07:54;3.15;;;3.05;;
18336;SDS011;9294;51.106;7.028;2022-10-30T04:10:21;2.90;;;2.80;;
18336;SDS011;9294;51.106;7.028;2022-10-30T04:12:48;3.08;;;2.90;;
18336;SDS011;9294;51.106;7.028;2022-10-30T04:15:15;2.63;;;2.53;;
18336;SDS011;9294;51.106;7.028;2022-10-30T04:17:47;3.00;;;2.90;;
18336;SDS011;9294;51.106;7.028;2022-10-30T04:20:14;2.88;;;2.78;;
18336;SDS011;9294;51.106;7.028;2022-10-30T04:22:42;2.83;;;2.72;;
18336;SDS011;9294;51.106;7.028;2022-10-30T04:25:10;2.40;;;2.30;;
18336;SDS011;9294;51.106;7.028;2022-10-30T04:27:40;2.70;;;2.60;;
18336;SDS011;9294;51.106;7.028;2022-10-30T04:30:08;3.30;;;3.20;;
18336;SDS011;9294;51.106;7.028;2022-10-30T04:32:35;2.88;;;2.72;;
18336;SDS011;9294;51.106;7.028;2022-10-30T04:35:02;2.95;;;2.85;;
18336;SDS011;9294;51.106;7.028;2022-10-30T04:37:29;3.15;;;3.05;;
18336;SDS011;9294;51.106;7.028;2022-10-30T04:39:58;2.40;;;2.30;;
18336;SDS011;9294;51.106;7.028;2022-10-30T04:42:25;2.90;;;2.80;;
18336;SDS011;9294;51.106;7.028;2022-10-30T04:44:52;2.72;;;2.63;;
18336;SDS011;9294;51.106;7.028;2022-10-30T04:47:19;2.97;;;2.78;;
18336;SDS011;9294;51.106;7.028;2022-10-30T04:49:46;2.70;;;2.60;;
18336;SDS011;9294;51.106;7.028;2022-10-30T04:52:13;2.75;;;2.65;;
18336;SDS011;9294;51.106;7.028;2022-10-30T04:54:40;2.35;;;2.33;;
18336;SDS011;9294;51.106;7.028;2022-10-30T04:57:09;3.40;;;3.20;;
18336;SDS011;9294;51.106;7.028;2022-10-30T04:59:36;2.92;;;2.72;;
18336;SDS011;9294;51.106;7.028;2022-10-30T05:02:03;2.78;;;2.67;;
18336;SDS011;9294;51.106;7.028;2022-10-30T05:04:31;3.03;;;2.90;;
18336;SDS011;9294;51.106;7.028;2022-10-30T05:06:58;2.83;;;2.72;;
18336;SDS011;9294;51.106;7.028;2022-10-30T05:09:26;2.70;;;2.55;;
18336;SDS011;9294;51.106;7.028;2022-10-30T05:11:53;2.88;;;2.78;;
18336;SDS011;9294;51.106;7.028;2022-10-30T05:14:21;2.70;;;2.60;;
18336;SDS011;9294;51.106;7.028;2022-10-30T05:16:48;2.70;;;2.60;;
18336;SDS011;9294;51.106;7.028;2022-10-30T05:19:15;2.75;;;2.65;;
18336;SDS011;9294;51.106;7.028;2022-10-30T05:21:42;3.03;;;2.92;;
18336;SDS011;9294;51.106;7.028;2022-10-30T05:24:09;2.67;;;2.58;;
18336;SDS011;9294;51.106;7.028;2022-10-30T05:26:36;3.15;;;3.00;;
18336;SDS011;9294;51.106;7.028;2022-10-30T05:29:04;3.17;;;3.05;;
18336;SDS011;9294;51.106;7.028;2022-10-30T05:31:32;2.70;;;2.60;;
18336;SDS011;9294;51.106;7.028;2022-10-30T05:33:59;3.05;;;2.83;;
18336;SDS011;9294;51.106;7.028;2022-10-30T05:36:26;2.83;;;2.72;;
18336;SDS011;9294;51.106;7.028;2022-10-30T05:38:53;2.75;;;2.65;;
18336;SDS011;9294;51.106;7.028;2022-10-30T05:41:20;2.85;;;2.67;;
18336;SDS011;9294;51.106;7.028;2022-10-30T05:43:47;2.92;;;2.83;;
18336;SDS011;9294;51.106;7.028;2022-10-30T05:46:14;3.30;;;3.20;;
18336;SDS011;9294;51.106;7.028;2022-10-30T05:48:43;3.25;;;3.10;;
18336;SDS011;9294;51.106;7.028;2022-10-30T05:51:10;2.88;;;2.78;;
18336;SDS011;9294;51.106;7.028;2022-10-30T05:53:37;2.97;;;2.88;;
18336;SDS011;9294;51.106;7.028;2022-10-30T05:56:04;2.90;;;2.75;;
18336;SDS011;9294;51.106;7.028;2022-10-30T05:58:31;2.97;;;2.70;;
18336;SDS011;9294;51.106;7.028;2022-10-30T06:00:58;2.85;;;2.75;;
18336;SDS011;9294;51.106;7.028;2022-10-30T06:03:25;3.08;;;2.97;;
18336;SDS011;9294;51.106;7.028;2022-10-30T06:05:54;3.00;;;2.80;;
18336;SDS011;9294;51.106;7.028;2022-10-30T06:08:21;3.17;;;2.85;;
18336;SDS011;9294;51.106;7.028;2022-10-30T06:10:48;2.60;;;2.50;;
18336;SDS011;9294;51.106;7.028;2022-10-30T06:13:15;3.08;;;2.97;;
18336;SDS011;9294;51.106;7.028;2022-10-30T06:15:42;3.17;;;2.70;;
18336;SDS011;9294;51.106;7.028;2022-10-30T06:18:09;2.58;;;2.47;;
18336;SDS011;9294;51.106;7.028;2022-10-30T06:20:36;2.90;;;2.80;;
18336;SDS011;9294;51.106;7.028;2022-10-30T06:23:05;2.60;;;2.50;;
18336;SDS011;9294;51.106;7.028;2022-10-30T06:25:33;3.00;;;2.90;;
18336;SDS011;9294;51.106;7.028;2022-10-30T06:28:01;3.17;;;3.00;;
18336;SDS011;9294;51.106;7.028;2022-10-30T06:30:28;4.40;;;2.70;;
18336;SDS011;9294;51.106;7.028;2022-10-30T06:32:55;3.03;;;2.92;;
18336;SDS011;9294;51.106;7.028;2022-10-30T06:35:23;3.30;;;3.17;;
18336;SDS011;9294;51.106;7.028;2022-10-30T06:37:50;3.17;;;3.00;;
18336;SDS011;9294;51.106;7.028;2022-10-30T06:40:20;3.22;;;3.10;;
18336;SDS011;9294;51.106;7.028;2022-10-30T06:42:48;3.10;;;3.00;;
18336;SDS011;9294;51.106;7.028;2022-10-30T06:45:16;3.35;;;3.15;;
18336;SDS011;9294;51.106;7.028;2022-10-30T06:47:44;3.45;;;3.25;;
18336;SDS011;9294;51.106;7.028;2022-10-30T06:50:12;2.90;;;2.80;;
18336;SDS011;9294;51.106;7.028;2022-10-30T06:52:39;3.17;;;2.97;;
18336;SDS011;9294;51.106;7.028;2022-10-30T06:55:06;3.22;;;3.03;;
18336;SDS011;9294;51.106;7.028;2022-10-30T06:57:35;3.22;;;3.13;;
18336;SDS011;9294;51.106;7.028;2022-10-30T07:00:02;3.35;;;3.00;;
18336;SDS011;9294;51.106;7.028;2022-10-30T07:02:30;2.95;;;2.80;;
18336;SDS011;9294;51.106;7.028;2022-10-30T07:04:57;3.28;;;3.17;;
18336;SDS011;9294;51.106;7.028;2022-10-30T07:07:24;3.45;;;3.25;;
18336;SDS011;9294;51.106;7.028;2022-10-30T07:09:51;3.20;;;3.03;;
18336;SDS011;9294;51.106;7.028;2022-10-30T07:12:18;3.45;;;3.25;;
18336;SDS011;9294;51.106;7.028;2022-10-30T07:14:46;3.60;;;3.40;;
18336;SDS011;9294;51.106;7.028;2022-10-30T07:17:13;2.95;;;2.85;;
18336;SDS011;9294;51.106;7.028;2022-10-30T07:19:40;3.70;;;3.40;;
18336;SDS011;9294;51.106;7.028;2022-10-30T07:22:07;3.60;;;3.40;;
18336;SDS011;9294;51.106;7.028;2022-10-30T07:24:34;3.58;;;3.33;;
18336;SDS011;9294;51.106;7.028;2022-10-30T07:27:01;3.08;;;2.97;;
18336;SDS011;9294;51.106;7.028;2022-10-30T07:29:28;3.40;;;3.20;;
18336;SDS011;9294;51.106;7.028;2022-10-30T07:31:57;3.28;;;3.08;;
18336;SDS011;9294;51.106;7.028;2022-10-30T07:34:24;3.05;;;2.90;;
18336;SDS011;9294;51.106;7.028;2022-10-30T07:36:51;3.53;;;3.33;;
18336;SDS011;9294;51.106;7.028;2022-10-30T07:39:18;3.10;;;3.00;;
18336;SDS011;9294;51.106;7.028;2022-10-30T07:41:47;3.63;;;3.42;;
18336;SDS011;9294;51.106;7.028;2022-10-30T07:44:14;3.47;;;3.28;;
18336;SDS011;9294;51.106;7.028;2022-10-30T07:46:41;3.25;;;3.05;;
18336;SDS011;9294;51.106;7.028;2022-10-30T07:49:09;3.30;;;3.20;;
18336;SDS011;9294;51.106;7.028;2022-10-30T07:51:36;3.05;;;2.85;;
18336;SDS011;9294;51.106;7.028;2022-10-30T07:54:04;4.25;;;3.92;;
18336;SDS011;9294;51.106;7.028;2022-10-30T07:56:31;3.38;;;3.20;;
18336;SDS011;9294;51.106;7.028;2022-10-30T07:58:58;3.17;;;3.05;;
18336;SDS011;9294;51.106;7.028;2022-10-30T08:01:25;3.67;;;3.47;;
18336;SDS011;9294;51.106;7.028;2022-10-30T08:03:52;2.90;;;2.80;;
18336;SDS011;9294;51.106;7.028;2022-10-30T08:06:21;3.72;;;3.47;;
18336;SDS011;9294;51.106;7.028;2022-10-30T08:08:48;3.30;;;3.17;;
18336;SDS011;9294;51.106;7.028;2022-10-30T08:11:15;3.13;;;2.97;;
18336;SDS011;9294;51.106;7.028;2022-10-30T08:13:42;3.47;;;3.28;;
18336;SDS011;9294;51.106;7.028;2022-10-30T08:16:09;3.88;;;3.60;;
18336;SDS011;9294;51.106;7.028;2022-10-30T08:18:38;3.33;;;3.22;;
18336;SDS011;9294;51.106;7.028;2022-10-30T08:21:06;2.55;;;2.45;;
18336;SDS011;9294;51.106;7.028;2022-10-30T08:23:34;3.72;;;3.53;;
18336;SDS011;9294;51.106;7.028;2022-10-30T08:26:01;3.50;;;3.30;;
18336;SDS011;9294;51.106;7.028;2022-10-30T08:28:29;3.83;;;3.63;;
18336;SDS011;9294;51.106;7.028;2022-10-30T08:30:56;3.63;;;3.53;;
18336;SDS011;9294;51.106;7.028;2022-10-30T08:33:23;3.50;;;3.28;;
18336;SDS011;9294;51.106;7.028;2022-10-30T08:35:51;3.50;;;3.30;;
18336;SDS011;9294;51.106;7.028;2022-10-30T08:38:18;3.42;;;3.33;;
18336;SDS011;9294;51.106;7.028;2022-10-30T08:40:47;3.72;;;3.53;;
18336;SDS011;9294;51.106;7.028;2022-10-30T08:43:14;3.30;;;3.10;;
18336;SDS011;9294;51.106;7.028;2022-10-30T08:45:41;3.42;;;3.22;;
18336;SDS011;9294;51.106;7.028;2022-10-30T08:48:08;3.58;;;3.28;;
18336;SDS011;9294;51.106;7.028;2022-10-30T08:50:36;3.60;;;3.40;;
18336;SDS011;9294;51.106;7.028;2022-10-30T08:53:04;3.42;;;3.22;;
18336;SDS011;9294;51.106;7.028;2022-10-30T08:55:31;3.83;;;3.63;;
18336;SDS011;9294;51.106;7.028;2022-10-30T08:58:00;3.47;;;3.28;;
18336;SDS011;9294;51.106;7.028;2022-10-30T09:00:27;3.55;;;3.38;;
18336;SDS011;9294;51.106;7.028;2022-10-30T09:02:54;3.75;;;3.50;;
18336;SDS011;9294;51.106;7.028;2022-10-30T09:05:21;3.67;;;3.47;;
18336;SDS011;9294;51.106;7.028;2022-10-30T09:07:48;3.13;;;2.83;;
18336;SDS011;9294;51.106;7.028;2022-10-30T09:10:15;3.28;;;3.17;;
18336;SDS011;9294;51.106;7.028;2022-10-30T09:12:42;3.70;;;3.40;;
18336;SDS011;9294;51.106;7.028;2022-10-30T09:15:11;3.30;;;3.00;;
18336;SDS011;9294;51.106;7.028;2022-10-30T09:17:38;3.80;;;3.60;;
18336;SDS011;9294;51.106;7.028;2022-10-30T09:20:05;3.88;;;3.67;;
18336;SDS011;9294;51.106;7.028;2022-10-30T09:22:32;3.28;;;3.10;;
18336;SDS011;9294;51.106;7.028;2022-10-30T09:24:59;3.15;;;3.05;;
18336;SDS011;9294;51.106;7.028;2022-10-30T09:27:26;4.15;;;3.92;;
18336;SDS011;9294;51.106;7.028;2022-10-30T09:29:53;3.20;;;3.10;;
18336;SDS011;9294;51.106;7.028;2022-10-30T09:32:22;3.38;;;3.17;;
18336;SDS011;9294;51.106;7.028;2022-10-30T09:34:49;3.63;;;3.53;;
18336;SDS011;9294;51.106;7.028;2022-10-30T09:37:16;3.08;;;2.97;;
18336;SDS011;9294;51.106;7.028;2022-10-30T09:39:43;3.70;;;3.50;;
18336;SDS011;9294;51.106;7.028;2022-10-30T09:42:20;2.90;;;2.75;;
18336;SDS011;9294;51.106;7.028;2022-10-30T09:44:52;3.00;;;2.90;;
18336;SDS011;9294;51.106;7.028;2022-10-30T09:47:25;3.40;;;3.20;;
18336;SDS011;9294;51.106;7.028;2022-10-30T09:49:58;3.92;;;3.63;;
18336;SDS011;9294;51.106;7.028;2022-10-30T09:52:27;3.75;;;3.45;;
18336;SDS011;9294;51.106;7.028;2022-10-30T09:57:44;3.13;;;3.03;;
18336;SDS011;9294;51.106;7.028;2022-10-30T10:00:15;3.70;;;3.40;;
18336;SDS011;9294;51.106;7.028;2022-10-30T10:02:50;3.75;;;3.45;;
18336;SDS011;9294;51.106;7.028;2022-10-30T10:05:20;3.92;;;3.60;;
18336;SDS011;9294;51.106;7.028;2022-10-30T10:07:48;3.83;;;3.53;;
18336;SDS011;9294;51.106;7.028;2022-10-30T10:10:17;3.28;;;3.10;;
18336;SDS011;9294;51.106;7.028;2022-10-30T10:12:46;3.00;;;2.90;;
18336;SDS011;9294;51.106;7.028;2022-10-30T10:15:15;3.22;;;3.10;;
18336;SDS011;9294;51.106;7.028;2022-10-30T10:17:45;3.35;;;3.25;;
18336;SDS011;9294;51.106;7.028;2022-10-30T10:20:15;4.22;;;3.92;;
18336;SDS011;9294;51.106;7.028;2022-10-30T10:22:45;3.20;;;3.10;;
18336;SDS011;9294;51.106;7.028;2022-10-30T10:25:14;3.10;;;2.90;;
18336;SDS011;9294;51.106;7.028;2022-10-30T10:27:46;3.03;;;2.88;;
18336;SDS011;9294;51.106;7.028;2022-10-30T10:30:18;3.50;;;3.30;;
18336;SDS011;9294;51.106;7.028;2022-10-30T10:32:50;3.65;;;3.35;;
18336;SDS011;9294;51.106;7.028;2022-10-30T10:35:36;3.35;;;3.25;;
18336;SDS011;9294;51.106;7.028;2022-10-30T10:38:11;3.55;;;3.35;;
18336;SDS011;9294;51.106;7.028;2022-10-30T10:40:46;3.08;;;2.97;;
18336;SDS011;9294;51.106;7.028;2022-10-30T10:43:18;3.45;;;3.25;;
18336;SDS011;9294;51.106;7.028;2022-10-30T10:45:52;3.20;;;3.10;;
18336;SDS011;9294;51.106;7.028;2022-10-30T10:48:33;3.30;;;3.20;;
18336;SDS011;9294;51.106;7.028;2022-10-30T10:51:06;3.33;;;3.20;;
18336;SDS011;9294;51.106;7.028;2022-10-30T10:53:37;3.55;;;3.35;;
18336;SDS011;9294;51.106;7.028;2022-10-30T10:56:06;3.20;;;3.00;;
18336;SDS011;9294;51.106;7.028;2022-10-30T10:58:35;3.15;;;2.95;;
18336;SDS011;9294;51.106;7.028;2022-10-30T11:01:07;3.30;;;3.10;;
18336;SDS011;9294;51.106;7.028;2022-10-30T11:03:41;3.38;;;3.17;;
18336;SDS011;9294;51.106;7.028;2022-10-30T11:06:17;3.45;;;3.25;;
18336;SDS011;9294;51.106;7.028;2022-10-30T11:08:45;3.70;;;3.40;;
18336;SDS011;9294;51.106;7.028;2022-10-30T11:11:13;3.10;;;3.00;;
18336;SDS011;9294;51.106;7.028;2022-10-30T11:13:40;3.15;;;3.05;;
18336;SDS011;9294;51.106;7.028;2022-10-30T11:16:11;3.35;;;3.08;;
18336;SDS011;9294;51.106;7.028;2022-10-30T11:18:39;3.60;;;3.42;;
18336;SDS011;9294;51.106;7.028;2022-10-30T11:21:08;3.30;;;3.10;;
18336;SDS011;9294;51.106;7.028;2022-10-30T11:23:38;3.17;;;3.00;;
18336;SDS011;9294;51.106;7.028;2022-10-30T11:26:24;3.20;;;2.90;;
18336;SDS011;9294;51.106;7.028;2022-10-30T11:28:53;2.92;;;2.83;;
18336;SDS011;9294;51.106;7.028;2022-10-30T11:31:21;6.95;;;3.00;;
18336;SDS011;9294;51.106;7.028;2022-10-30T11:33:49;4.20;;;3.80;;
18336;SDS011;9294;51.106;7.028;2022-10-30T11:36:17;3.50;;;3.25;;
18336;SDS011;9294;51.106;7.028;2022-10-30T11:38:45;3.40;;;3.00;;
18336;SDS011;9294;51.106;7.028;2022-10-30T11:41:12;3.70;;;3.38;;
18336;SDS011;9294;51.106;7.028;2022-10-30T11:43:40;3.95;;;3.60;;
18336;SDS011;9294;51.106;7.028;2022-10-30T11:46:08;3.33;;;3.13;;
18336;SDS011;9294;51.106;7.028;2022-10-30T11:48:37;3.72;;;3.50;;
18336;SDS011;9294;51.106;7.028;2022-10-30T11:51:05;4.88;;;3.90;;
18336;SDS011;9294;51.106;7.028;2022-10-30T11:53:32;5.93;;;3.95;;
18336;SDS011;9294;51.106;7.028;2022-10-30T11:56:09;4.07;;;3.75;;
18336;SDS011;9294;51.106;7.028;2022-10-30T11:58:41;9.85;;;4.80;;
18336;SDS011;9294;51.106;7.028;2022-10-30T12:01:11;11.55;;;4.68;;
18336;SDS011;9294;51.106;7.028;2022-10-30T12:03:39;6.22;;;4.30;;
18336;SDS011;9294;51.106;7.028;2022-10-30T12:06:08;6.00;;;5.03;;
18336;SDS011;9294;51.106;7.028;2022-10-30T12:08:36;6.35;;;4.65;;
18336;SDS011;9294;51.106;7.028;2022-10-30T12:11:04;9.90;;;5.88;;
18336;SDS011;9294;51.106;7.028;2022-10-30T12:13:36;9.10;;;6.15;;
18336;SDS011;9294;51.106;7.028;2022-10-30T12:19:01;10.20;;;6.18;;
18336;SDS011;9294;51.106;7.028;2022-10-30T12:21:30;8.82;;;5.85;;
18336;SDS011;9294;51.106;7.028;2022-10-30T12:24:02;10.02;;;6.57;;
18336;SDS011;9294;51.106;7.028;2022-10-30T12:26:34;6.18;;;5.60;;
18336;SDS011;9294;51.106;7.028;2022-10-30T12:29:04;7.82;;;6.05;;
18336;SDS011;9294;51.106;7.028;2022-10-30T12:31:33;7.35;;;5.78;;
18336;SDS011;9294;51.106;7.028;2022-10-30T12:34:04;6.38;;;5.78;;
18336;SDS011;9294;51.106;7.028;2022-10-30T12:36:35;8.07;;;5.95;;
18336;SDS011;9294;51.106;7.028;2022-10-30T12:39:08;11.23;;;5.22;;
18336;SDS011;9294;51.106;7.028;2022-10-30T12:41:41;7.88;;;5.55;;
18336;SDS011;9294;51.106;7.028;2022-10-30T12:44:09;9.75;;;5.90;;
18336;SDS011;9294;51.106;7.028;2022-10-30T12:46:38;7.63;;;4.78;;
18336;SDS011;9294;51.106;7.028;2022-10-30T12:49:13;7.35;;;4.95;;
18336;SDS011;9294;51.106;7.028;2022-10-30T12:51:45;7.03;;;5.25;;
18336;SDS011;9294;51.106;7.028;2022-10-30T12:54:18;5.82;;;5.20;;
18336;SDS011;9294;51.106;7.028;2022-10-30T12:56:49;6.53;;;5.85;;
18336;SDS011;9294;51.106;7.028;2022-10-30T12:59:24;7.38;;;4.93;;
18336;SDS011;9294;51.106;7.028;2022-10-30T13:01:54;7.53;;;5.13;;
18336;SDS011;9294;51.106;7.028;2022-10-30T13:04:24;6.78;;;5.32;;
18336;SDS011;9294;51.106;7.028;2022-10-30T13:06:53;4.97;;;4.47;;
18336;SDS011;9294;51.106;7.028;2022-10-30T13:09:22;7.70;;;4.85;;
18336;SDS011;9294;51.106;7.028;2022-10-30T13:11:56;6.82;;;4.93;;
18336;SDS011;9294;51.106;7.028;2022-10-30T13:14:26;5.07;;;4.63;;
18336;SDS011;9294;51.106;7.028;2022-10-30T13:16:55;7.95;;;4.82;;
18336;SDS011;9294;51.106;7.028;2022-10-30T13:19:22;10.23;;;4.72;;
18336;SDS011;9294;51.106;7.028;2022-10-30T13:21:52;8.52;;;4.70;;
18336;SDS011;9294;51.106;7.028;2022-10-30T13:24:22;5.25;;;4.72;;
18336;SDS011;9294;51.106;7.028;2022-10-30T13:26:54;9.38;;;4.85;;
18336;SDS011;9294;51.106;7.028;2022-10-30T13:29:24;6.55;;;4.55;;
18336;SDS011;9294;51.106;7.028;2022-10-30T13:31:57;6.90;;;4.90;;
18336;SDS011;9294;51.106;7.028;2022-10-30T13:34:29;6.32;;;4.50;;
18336;SDS011;9294;51.106;7.028;2022-10-30T13:37:00;7.13;;;4.30;;
18336;SDS011;9294;51.106;7.028;2022-10-30T13:39:31;8.57;;;4.90;;
18336;SDS011;9294;51.106;7.028;2022-10-30T13:42:05;5.13;;;4.38;;
18336;SDS011;9294;51.106;7.028;2022-10-30T13:44:38;7.15;;;4.93;;
18336;SDS011;9294;51.106;7.028;2022-10-30T13:47:09;7.93;;;4.65;;
18336;SDS011;9294;51.106;7.028;2022-10-30T13:49:44;5.20;;;4.28;;
18336;SDS011;9294;51.106;7.028;2022-10-30T13:52:14;5.65;;;4.60;;
18336;SDS011;9294;51.106;7.028;2022-10-30T13:54:43;8.65;;;4.80;;
18336;SDS011;9294;51.106;7.028;2022-10-30T13:57:13;8.98;;;4.80;;
18336;SDS011;9294;51.106;7.028;2022-10-30T13:59:54;6.45;;;4.50;;
18336;SDS011;9294;51.106;7.028;2022-10-30T14:02:26;10.15;;;5.43;;
18336;SDS011;9294;51.106;7.028;2022-10-30T14:04:57;5.78;;;4.82;;
18336;SDS011;9294;51.106;7.028;2022-10-30T14:07:28;7.22;;;4.28;;
18336;SDS011;9294;51.106;7.028;2022-10-30T14:09:58;11.85;;;4.70;;
18336;SDS011;9294;51.106;7.028;2022-10-30T14:12:47;9.23;;;4.90;;
18336;SDS011;9294;51.106;7.028;2022-10-30T14:20:46;6.63;;;4.00;;
18336;SDS011;9294;51.106;7.028;2022-10-30T14:23:14;5.95;;;5.07;;
18336;SDS011;9294;51.106;7.028;2022-10-30T14:25:58;13.23;;;4.75;;
18336;SDS011;9294;51.106;7.028;2022-10-30T14:28:39;12.75;;;5.88;;
18336;SDS011;9294;51.106;7.028;2022-10-30T14:31:07;9.18;;;5.05;;
18336;SDS011;9294;51.106;7.028;2022-10-30T14:33:42;8.75;;;4.25;;
18336;SDS011;9294;51.106;7.028;2022-10-30T14:36:20;7.88;;;4.68;;
18336;SDS011;9294;51.106;7.028;2022-10-30T14:38:51;8.55;;;4.63;;
18336;SDS011;9294;51.106;7.028;2022-10-30T14:44:14;5.40;;;4.18;;
18336;SDS011;9294;51.106;7.028;2022-10-30T14:46:43;8.00;;;4.18;;
18336;SDS011;9294;51.106;7.028;2022-10-30T14:49:22;5.97;;;4.00;;
18336;SDS011;9294;51.106;7.028;2022-10-30T14:51:57;6.32;;;4.30;;
18336;SDS011;9294;51.106;7.028;2022-10-30T14:54:31;7.15;;;4.30;;
18336;SDS011;9294;51.106;7.028;2022-10-30T14:57:03;7.88;;;4.28;;
18336;SDS011;9294;51.106;7.028;2022-10-30T14:59:46;6.93;;;4.95;;
18336;SDS011;9294;51.106;7.028;2022-10-30T15:02:22;4.82;;;4.28;;
18336;SDS011;9294;51.106;7.028;2022-10-30T15:04:58;5.90;;;4.25;;
18336;SDS011;9294;51.106;7.028;2022-10-30T15:07:31;7.53;;;4.78;;
18336;SDS011;9294;51.106;7.028;2022-10-30T15:10:05;8.07;;;4.25;;
18336;SDS011;9294;51.106;7.028;2022-10-30T15:12:39;6.47;;;4.25;;
18336;SDS011;9294;51.106;7.028;2022-10-30T15:15:11;6.63;;;4.15;;
18336;SDS011;9294;51.106;7.028;2022-10-30T15:17:40;6.95;;;5.38;;
18336;SDS011;9294;51.106;7.028;2022-10-30T15:20:13;4.53;;;3.88;;
18336;SDS011;9294;51.106;7.028;2022-10-30T15:22:41;5.13;;;4.63;;
18336;SDS011;9294;51.106;7.028;2022-10-30T15:25:12;4.95;;;4.43;;